createdAt,value
2023-05-10T00:11:27.770Z,0.40
2023-05-10T00:41:30.720Z,0.47
2023-05-10T01:11:33.994Z,0.60
2023-05-10T01:41:52.281Z,0.60
2023-05-10T02:11:55.528Z,0.70
2023-05-10T02:41:58.661Z,1.00
2023-05-10T03:12:06.093Z,1.05
2023-05-10T03:42:09.016Z,1.40
2023-05-10T04:12:11.989Z,0.80
2023-05-10T04:42:14.920Z,1.55
2023-05-10T05:12:17.853Z,1.33
2023-05-10T05:42:20.915Z,2.65
2023-05-10T06:12:24.710Z,2.28
2023-05-10T06:42:30.377Z,2.33
2023-05-10T07:12:34.427Z,2.33
2023-05-10T07:42:37.447Z,2.40
2023-05-10T08:12:40.599Z,2.10
2023-05-10T08:42:48.495Z,1.70
2023-05-10T09:12:51.600Z,1.60
2023-05-10T09:42:55.939Z,1.10
2023-05-10T10:12:59.162Z,0.70
2023-05-10T10:43:22.779Z,0.77
2023-05-10T11:13:33.163Z,0.50
2023-05-10T11:43:36.249Z,0.47
2023-05-10T12:13:40.794Z,0.52
2023-05-10T12:43:44.167Z,0.50
2023-05-10T13:13:47.181Z,0.50
2023-05-10T13:43:50.136Z,0.77
2023-05-10T14:13:53.151Z,0.60
2023-05-10T14:43:56.114Z,0.70
2023-05-10T15:44:02.058Z,0.90
2023-05-10T16:14:07.146Z,0.60
2023-05-10T16:44:10.272Z,0.50
2023-05-10T17:14:13.209Z,0.70
2023-05-10T17:44:17.401Z,0.60
2023-05-10T18:14:31.941Z,1.00
2023-05-10T18:44:39.334Z,0.70
2023-05-10T19:14:42.467Z,0.75
2023-05-10T19:44:45.933Z,0.80
2023-05-10T20:14:48.938Z,0.80
2023-05-10T20:44:51.980Z,1.35
2023-05-10T21:14:55.074Z,1.25
2023-05-10T21:44:58.120Z,1.20
2023-05-10T22:15:10.450Z,1.30
2023-05-10T22:45:13.897Z,1.10
2023-05-10T23:15:16.946Z,2.05
2023-05-10T23:45:20.018Z,1.50
